sensor_id;sensor_type;location;lat;lon;timestamp;P1;durP1;ratioP1;P2;durP2;ratioP2
51358;SDS011;37448;51.588;7.248;2024-01-16T00:01:57;9.63;;;5.65;;
51358;SDS011;37448;51.588;7.248;2024-01-16T00:03:57;9.48;;;5.72;;
51358;SDS011;37448;51.588;7.248;2024-01-16T00:05:58;12.90;;;5.68;;
51358;SDS011;37448;51.588;7.248;2024-01-16T00:07:59;14.38;;;6.55;;
51358;SDS011;37448;51.588;7.248;2024-01-16T00:10:00;11.48;;;5.32;;
51358;SDS011;37448;51.588;7.248;2024-01-16T00:12:01;11.80;;;6.45;;
51358;SDS011;37448;51.588;7.248;2024-01-16T00:14:02;11.70;;;6.28;;
51358;SDS011;37448;51.588;7.248;2024-01-16T00:16:02;11.98;;;5.70;;
51358;SDS011;37448;51.588;7.248;2024-01-16T00:18:05;10.50;;;5.75;;
51358;SDS011;37448;51.588;7.248;2024-01-16T00:20:06;13.77;;;5.60;;
51358;SDS011;37448;51.588;7.248;2024-01-16T00:22:07;14.27;;;6.03;;
51358;SDS011;37448;51.588;7.248;2024-01-16T00:24:07;14.10;;;6.47;;
51358;SDS011;37448;51.588;7.248;2024-01-16T00:26:08;14.43;;;6.35;;
51358;SDS011;37448;51.588;7.248;2024-01-16T00:28:08;8.77;;;5.47;;
51358;SDS011;37448;51.588;7.248;2024-01-16T00:30:09;14.52;;;6.82;;
51358;SDS011;37448;51.588;7.248;2024-01-16T00:32:10;10.48;;;6.05;;
51358;SDS011;37448;51.588;7.248;2024-01-16T00:34:10;13.02;;;5.65;;
51358;SDS011;37448;51.588;7.248;2024-01-16T00:36:10;11.48;;;5.35;;
51358;SDS011;37448;51.588;7.248;2024-01-16T00:38:11;9.68;;;5.13;;
51358;SDS011;37448;51.588;7.248;2024-01-16T00:40:11;11.55;;;5.70;;
51358;SDS011;37448;51.588;7.248;2024-01-16T00:42:12;14.20;;;7.38;;
51358;SDS011;37448;51.588;7.248;2024-01-16T00:44:12;11.40;;;5.03;;
51358;SDS011;37448;51.588;7.248;2024-01-16T00:46:13;14.23;;;5.60;;
51358;SDS011;37448;51.588;7.248;2024-01-16T00:48:13;12.57;;;5.30;;
51358;SDS011;37448;51.588;7.248;2024-01-16T00:50:14;9.13;;;5.43;;
51358;SDS011;37448;51.588;7.248;2024-01-16T00:52:14;9.35;;;5.07;;
51358;SDS011;37448;51.588;7.248;2024-01-16T00:54:14;10.60;;;5.50;;
51358;SDS011;37448;51.588;7.248;2024-01-16T00:56:15;10.40;;;5.97;;
51358;SDS011;37448;51.588;7.248;2024-01-16T00:58:15;10.27;;;5.57;;
51358;SDS011;37448;51.588;7.248;2024-01-16T01:00:16;14.15;;;5.28;;
51358;SDS011;37448;51.588;7.248;2024-01-16T01:02:16;11.52;;;5.75;;
51358;SDS011;37448;51.588;7.248;2024-01-16T01:04:17;10.85;;;5.88;;
51358;SDS011;37448;51.588;7.248;2024-01-16T01:06:17;12.10;;;5.22;;
51358;SDS011;37448;51.588;7.248;2024-01-16T01:08:18;12.60;;;5.82;;
51358;SDS011;37448;51.588;7.248;2024-01-16T01:10:18;9.73;;;5.15;;
51358;SDS011;37448;51.588;7.248;2024-01-16T01:12:19;11.73;;;5.40;;
51358;SDS011;37448;51.588;7.248;2024-01-16T01:14:19;8.18;;;4.85;;
51358;SDS011;37448;51.588;7.248;2024-01-16T01:16:19;9.50;;;4.75;;
51358;SDS011;37448;51.588;7.248;2024-01-16T01:18:20;10.43;;;4.72;;
51358;SDS011;37448;51.588;7.248;2024-01-16T01:20:20;11.65;;;4.45;;
51358;SDS011;37448;51.588;7.248;2024-01-16T01:22:21;8.55;;;4.60;;
51358;SDS011;37448;51.588;7.248;2024-01-16T01:24:21;9.75;;;4.90;;
51358;SDS011;37448;51.588;7.248;2024-01-16T01:26:22;9.18;;;4.95;;
51358;SDS011;37448;51.588;7.248;2024-01-16T01:28:22;10.05;;;4.40;;
51358;SDS011;37448;51.588;7.248;2024-01-16T01:30:22;11.55;;;4.63;;
51358;SDS011;37448;51.588;7.248;2024-01-16T01:32:23;7.43;;;3.97;;
51358;SDS011;37448;51.588;7.248;2024-01-16T01:34:24;9.18;;;5.18;;
51358;SDS011;37448;51.588;7.248;2024-01-16T01:36:24;9.15;;;5.13;;
51358;SDS011;37448;51.588;7.248;2024-01-16T01:38:24;7.32;;;4.13;;
51358;SDS011;37448;51.588;7.248;2024-01-16T01:40:25;13.55;;;6.05;;
51358;SDS011;37448;51.588;7.248;2024-01-16T01:42:25;9.90;;;5.72;;
51358;SDS011;37448;51.588;7.248;2024-01-16T01:44:26;7.75;;;4.53;;
51358;SDS011;37448;51.588;7.248;2024-01-16T01:46:26;10.23;;;4.50;;
51358;SDS011;37448;51.588;7.248;2024-01-16T01:48:28;7.78;;;4.75;;
51358;SDS011;37448;51.588;7.248;2024-01-16T01:50:28;11.15;;;5.47;;
51358;SDS011;37448;51.588;7.248;2024-01-16T01:52:30;10.43;;;4.97;;
51358;SDS011;37448;51.588;7.248;2024-01-16T01:54:32;7.78;;;4.05;;
51358;SDS011;37448;51.588;7.248;2024-01-16T01:56:35;8.75;;;4.47;;
51358;SDS011;37448;51.588;7.248;2024-01-16T01:58:36;11.70;;;5.10;;
51358;SDS011;37448;51.588;7.248;2024-01-16T02:00:41;7.75;;;3.80;;
51358;SDS011;37448;51.588;7.248;2024-01-16T02:02:41;8.57;;;4.32;;
51358;SDS011;37448;51.588;7.248;2024-01-16T02:04:43;8.10;;;3.72;;
51358;SDS011;37448;51.588;7.248;2024-01-16T02:06:44;10.00;;;3.65;;
51358;SDS011;37448;51.588;7.248;2024-01-16T02:08:44;9.40;;;4.20;;
51358;SDS011;37448;51.588;7.248;2024-01-16T02:10:45;9.90;;;3.45;;
51358;SDS011;37448;51.588;7.248;2024-01-16T02:12:48;6.45;;;3.67;;
51358;SDS011;37448;51.588;7.248;2024-01-16T02:14:48;8.20;;;4.18;;
51358;SDS011;37448;51.588;7.248;2024-01-16T02:16:48;8.75;;;3.80;;
51358;SDS011;37448;51.588;7.248;2024-01-16T02:18:50;9.88;;;3.65;;
51358;SDS011;37448;51.588;7.248;2024-01-16T02:20:51;6.47;;;4.20;;
51358;SDS011;37448;51.588;7.248;2024-01-16T02:22:52;12.45;;;4.70;;
51358;SDS011;37448;51.588;7.248;2024-01-16T02:24:55;6.68;;;3.83;;
51358;SDS011;37448;51.588;7.248;2024-01-16T02:26:56;10.98;;;4.82;;
51358;SDS011;37448;51.588;7.248;2024-01-16T02:28:57;9.73;;;4.45;;
51358;SDS011;37448;51.588;7.248;2024-01-16T02:30:57;10.45;;;5.03;;
51358;SDS011;37448;51.588;7.248;2024-01-16T02:32:57;8.68;;;4.38;;
51358;SDS011;37448;51.588;7.248;2024-01-16T02:34:58;11.77;;;4.72;;
51358;SDS011;37448;51.588;7.248;2024-01-16T02:36:58;7.95;;;4.60;;
51358;SDS011;37448;51.588;7.248;2024-01-16T02:38:59;10.48;;;4.93;;
51358;SDS011;37448;51.588;7.248;2024-01-16T02:40:59;10.25;;;4.32;;
51358;SDS011;37448;51.588;7.248;2024-01-16T02:43:00;13.40;;;4.88;;
51358;SDS011;37448;51.588;7.248;2024-01-16T02:45:00;14.77;;;4.68;;
51358;SDS011;37448;51.588;7.248;2024-01-16T02:47:02;7.97;;;4.25;;
51358;SDS011;37448;51.588;7.248;2024-01-16T02:49:02;8.55;;;4.28;;
51358;SDS011;37448;51.588;7.248;2024-01-16T02:51:03;8.90;;;4.72;;
51358;SDS011;37448;51.588;7.248;2024-01-16T02:53:04;8.93;;;4.82;;
51358;SDS011;37448;51.588;7.248;2024-01-16T02:55:04;9.88;;;4.18;;
51358;SDS011;37448;51.588;7.248;2024-01-16T02:57:05;11.45;;;4.15;;
51358;SDS011;37448;51.588;7.248;2024-01-16T02:59:06;9.30;;;4.50;;
51358;SDS011;37448;51.588;7.248;2024-01-16T03:01:06;10.05;;;5.18;;
51358;SDS011;37448;51.588;7.248;2024-01-16T03:03:07;8.10;;;4.57;;
51358;SDS011;37448;51.588;7.248;2024-01-16T03:05:08;9.80;;;4.90;;
51358;SDS011;37448;51.588;7.248;2024-01-16T03:07:09;10.43;;;5.05;;
51358;SDS011;37448;51.588;7.248;2024-01-16T03:09:09;13.05;;;5.55;;
51358;SDS011;37448;51.588;7.248;2024-01-16T03:11:12;11.23;;;5.88;;
51358;SDS011;37448;51.588;7.248;2024-01-16T03:13:12;14.13;;;6.00;;
51358;SDS011;37448;51.588;7.248;2024-01-16T03:15:13;10.40;;;4.57;;
51358;SDS011;37448;51.588;7.248;2024-01-16T03:17:14;12.00;;;5.80;;
51358;SDS011;37448;51.588;7.248;2024-01-16T03:19:14;9.93;;;4.80;;
51358;SDS011;37448;51.588;7.248;2024-01-16T03:21:15;10.52;;;5.07;;
51358;SDS011;37448;51.588;7.248;2024-01-16T03:23:15;9.00;;;5.80;;
51358;SDS011;37448;51.588;7.248;2024-01-16T03:25:16;8.45;;;4.53;;
51358;SDS011;37448;51.588;7.248;2024-01-16T03:27:17;12.00;;;5.35;;
51358;SDS011;37448;51.588;7.248;2024-01-16T03:29:18;12.57;;;5.85;;
51358;SDS011;37448;51.588;7.248;2024-01-16T03:31:18;11.95;;;6.05;;
51358;SDS011;37448;51.588;7.248;2024-01-16T03:33:21;12.25;;;5.13;;
51358;SDS011;37448;51.588;7.248;2024-01-16T03:35:21;11.13;;;5.10;;
51358;SDS011;37448;51.588;7.248;2024-01-16T03:37:22;12.45;;;5.93;;
51358;SDS011;37448;51.588;7.248;2024-01-16T03:39:22;13.45;;;5.38;;
51358;SDS011;37448;51.588;7.248;2024-01-16T03:41:22;12.95;;;6.63;;
51358;SDS011;37448;51.588;7.248;2024-01-16T03:43:23;13.85;;;6.07;;
51358;SDS011;37448;51.588;7.248;2024-01-16T03:45:23;13.40;;;7.40;;
51358;SDS011;37448;51.588;7.248;2024-01-16T03:47:23;14.93;;;6.75;;
51358;SDS011;37448;51.588;7.248;2024-01-16T03:49:24;16.60;;;7.75;;
51358;SDS011;37448;51.588;7.248;2024-01-16T03:51:25;13.48;;;6.90;;
51358;SDS011;37448;51.588;7.248;2024-01-16T03:53:25;13.88;;;7.18;;
51358;SDS011;37448;51.588;7.248;2024-01-16T03:55:26;15.20;;;7.53;;
51358;SDS011;37448;51.588;7.248;2024-01-16T03:57:26;13.02;;;6.65;;
51358;SDS011;37448;51.588;7.248;2024-01-16T03:59:26;19.83;;;7.95;;
51358;SDS011;37448;51.588;7.248;2024-01-16T04:01:33;14.18;;;7.75;;
51358;SDS011;37448;51.588;7.248;2024-01-16T04:03:36;15.55;;;7.25;;
51358;SDS011;37448;51.588;7.248;2024-01-16T04:05:38;13.18;;;7.25;;
51358;SDS011;37448;51.588;7.248;2024-01-16T04:07:39;16.52;;;7.05;;
51358;SDS011;37448;51.588;7.248;2024-01-16T04:09:39;18.85;;;7.57;;
51358;SDS011;37448;51.588;7.248;2024-01-16T04:11:39;12.63;;;7.00;;
51358;SDS011;37448;51.588;7.248;2024-01-16T04:13:40;18.23;;;8.38;;
51358;SDS011;37448;51.588;7.248;2024-01-16T04:15:41;19.48;;;8.88;;
51358;SDS011;37448;51.588;7.248;2024-01-16T04:17:41;15.32;;;8.55;;
51358;SDS011;37448;51.588;7.248;2024-01-16T04:19:42;17.98;;;8.57;;
51358;SDS011;37448;51.588;7.248;2024-01-16T04:21:42;20.77;;;8.30;;
51358;SDS011;37448;51.588;7.248;2024-01-16T04:23:43;16.85;;;8.85;;
51358;SDS011;37448;51.588;7.248;2024-01-16T04:25:43;17.38;;;7.68;;
51358;SDS011;37448;51.588;7.248;2024-01-16T04:27:44;17.23;;;7.85;;
51358;SDS011;37448;51.588;7.248;2024-01-16T04:29:44;22.70;;;7.57;;
51358;SDS011;37448;51.588;7.248;2024-01-16T04:31:45;11.82;;;7.45;;
51358;SDS011;37448;51.588;7.248;2024-01-16T04:33:45;14.23;;;7.13;;
51358;SDS011;37448;51.588;7.248;2024-01-16T04:35:45;15.93;;;7.38;;
51358;SDS011;37448;51.588;7.248;2024-01-16T04:37:46;20.73;;;8.23;;
51358;SDS011;37448;51.588;7.248;2024-01-16T04:39:46;13.38;;;6.32;;
51358;SDS011;37448;51.588;7.248;2024-01-16T04:41:46;19.20;;;8.27;;
51358;SDS011;37448;51.588;7.248;2024-01-16T04:43:47;13.82;;;7.82;;
51358;SDS011;37448;51.588;7.248;2024-01-16T04:45:48;17.63;;;7.40;;
51358;SDS011;37448;51.588;7.248;2024-01-16T04:47:49;14.25;;;6.97;;
51358;SDS011;37448;51.588;7.248;2024-01-16T04:49:50;15.35;;;8.18;;
51358;SDS011;37448;51.588;7.248;2024-01-16T04:51:50;15.75;;;7.80;;
51358;SDS011;37448;51.588;7.248;2024-01-16T04:53:50;15.60;;;6.93;;
51358;SDS011;37448;51.588;7.248;2024-01-16T04:55:51;16.13;;;7.13;;
51358;SDS011;37448;51.588;7.248;2024-01-16T04:57:51;13.25;;;6.40;;
51358;SDS011;37448;51.588;7.248;2024-01-16T04:59:51;14.63;;;6.90;;
51358;SDS011;37448;51.588;7.248;2024-01-16T05:01:52;16.17;;;8.00;;
51358;SDS011;37448;51.588;7.248;2024-01-16T05:03:52;15.48;;;7.45;;
51358;SDS011;37448;51.588;7.248;2024-01-16T05:05:52;15.93;;;7.47;;
51358;SDS011;37448;51.588;7.248;2024-01-16T05:07:53;13.00;;;7.68;;
51358;SDS011;37448;51.588;7.248;2024-01-16T05:09:53;16.60;;;8.50;;
51358;SDS011;37448;51.588;7.248;2024-01-16T05:11:55;14.57;;;6.93;;
51358;SDS011;37448;51.588;7.248;2024-01-16T05:13:55;16.15;;;7.70;;
51358;SDS011;37448;51.588;7.248;2024-01-16T05:15:59;13.38;;;6.20;;
51358;SDS011;37448;51.588;7.248;2024-01-16T05:17:59;12.43;;;6.28;;
51358;SDS011;37448;51.588;7.248;2024-01-16T05:19:59;12.93;;;7.72;;
51358;SDS011;37448;51.588;7.248;2024-01-16T05:22:05;14.10;;;6.95;;
51358;SDS011;37448;51.588;7.248;2024-01-16T05:24:07;12.93;;;7.22;;
51358;SDS011;37448;51.588;7.248;2024-01-16T05:26:08;12.43;;;6.00;;
51358;SDS011;37448;51.588;7.248;2024-01-16T05:28:08;11.23;;;5.97;;
51358;SDS011;37448;51.588;7.248;2024-01-16T05:30:08;11.05;;;6.40;;
51358;SDS011;37448;51.588;7.248;2024-01-16T05:32:09;12.98;;;6.65;;
51358;SDS011;37448;51.588;7.248;2024-01-16T05:34:10;12.38;;;6.03;;
51358;SDS011;37448;51.588;7.248;2024-01-16T05:36:10;12.75;;;5.70;;
51358;SDS011;37448;51.588;7.248;2024-01-16T05:38:11;10.45;;;5.55;;
51358;SDS011;37448;51.588;7.248;2024-01-16T05:40:12;8.25;;;5.60;;
51358;SDS011;37448;51.588;7.248;2024-01-16T05:42:12;13.48;;;7.13;;
51358;SDS011;37448;51.588;7.248;2024-01-16T05:44:13;12.15;;;6.25;;
51358;SDS011;37448;51.588;7.248;2024-01-16T05:46:13;9.05;;;5.90;;
51358;SDS011;37448;51.588;7.248;2024-01-16T05:48:13;10.52;;;6.00;;
51358;SDS011;37448;51.588;7.248;2024-01-16T05:50:14;11.38;;;5.55;;
51358;SDS011;37448;51.588;7.248;2024-01-16T05:54:18;8.77;;;5.20;;
51358;SDS011;37448;51.588;7.248;2024-01-16T05:56:18;9.95;;;4.93;;
51358;SDS011;37448;51.588;7.248;2024-01-16T05:58:19;11.45;;;4.68;;
51358;SDS011;37448;51.588;7.248;2024-01-16T06:00:19;12.55;;;5.85;;
51358;SDS011;37448;51.588;7.248;2024-01-16T06:02:23;11.77;;;6.07;;
51358;SDS011;37448;51.588;7.248;2024-01-16T06:04:24;12.90;;;5.78;;
51358;SDS011;37448;51.588;7.248;2024-01-16T06:06:24;13.98;;;6.88;;
51358;SDS011;37448;51.588;7.248;2024-01-16T06:08:25;10.63;;;5.88;;
51358;SDS011;37448;51.588;7.248;2024-01-16T06:10:25;13.07;;;5.82;;
51358;SDS011;37448;51.588;7.248;2024-01-16T06:12:26;18.38;;;6.45;;
51358;SDS011;37448;51.588;7.248;2024-01-16T06:14:26;11.50;;;6.13;;
51358;SDS011;37448;51.588;7.248;2024-01-16T06:16:26;11.27;;;5.80;;
51358;SDS011;37448;51.588;7.248;2024-01-16T06:18:27;11.98;;;5.88;;
51358;SDS011;37448;51.588;7.248;2024-01-16T06:20:27;17.77;;;5.32;;
51358;SDS011;37448;51.588;7.248;2024-01-16T06:22:29;9.20;;;4.53;;
51358;SDS011;37448;51.588;7.248;2024-01-16T06:24:29;10.48;;;5.28;;
51358;SDS011;37448;51.588;7.248;2024-01-16T06:26:36;10.15;;;4.93;;
51358;SDS011;37448;51.588;7.248;2024-01-16T06:28:36;8.45;;;5.18;;
51358;SDS011;37448;51.588;7.248;2024-01-16T06:30:37;9.13;;;4.43;;
51358;SDS011;37448;51.588;7.248;2024-01-16T06:32:37;12.75;;;6.00;;
51358;SDS011;37448;51.588;7.248;2024-01-16T06:34:38;10.40;;;4.97;;
51358;SDS011;37448;51.588;7.248;2024-01-16T06:36:38;12.18;;;5.75;;
51358;SDS011;37448;51.588;7.248;2024-01-16T06:38:39;10.93;;;5.78;;
51358;SDS011;37448;51.588;7.248;2024-01-16T06:40:40;14.55;;;6.97;;
51358;SDS011;37448;51.588;7.248;2024-01-16T06:42:40;12.60;;;6.38;;
51358;SDS011;37448;51.588;7.248;2024-01-16T06:44:41;16.35;;;7.78;;
51358;SDS011;37448;51.588;7.248;2024-01-16T06:46:41;14.23;;;7.18;;
51358;SDS011;37448;51.588;7.248;2024-01-16T06:48:42;13.90;;;6.72;;
51358;SDS011;37448;51.588;7.248;2024-01-16T06:50:42;13.30;;;6.43;;
51358;SDS011;37448;51.588;7.248;2024-01-16T06:52:42;14.00;;;7.63;;
51358;SDS011;37448;51.588;7.248;2024-01-16T06:54:43;13.23;;;7.45;;
51358;SDS011;37448;51.588;7.248;2024-01-16T06:56:43;15.80;;;7.47;;
51358;SDS011;37448;51.588;7.248;2024-01-16T06:58:43;14.32;;;7.20;;
51358;SDS011;37448;51.588;7.248;2024-01-16T07:00:44;15.38;;;7.40;;
51358;SDS011;37448;51.588;7.248;2024-01-16T07:02:45;13.90;;;7.35;;
51358;SDS011;37448;51.588;7.248;2024-01-16T07:04:45;17.55;;;7.93;;
51358;SDS011;37448;51.588;7.248;2024-01-16T07:06:45;16.27;;;7.32;;
51358;SDS011;37448;51.588;7.248;2024-01-16T07:08:46;17.35;;;7.43;;
51358;SDS011;37448;51.588;7.248;2024-01-16T07:10:47;16.60;;;8.13;;
51358;SDS011;37448;51.588;7.248;2024-01-16T07:12:47;20.98;;;9.80;;
51358;SDS011;37448;51.588;7.248;2024-01-16T07:14:49;16.83;;;8.77;;
51358;SDS011;37448;51.588;7.248;2024-01-16T07:16:50;21.67;;;8.95;;
51358;SDS011;37448;51.588;7.248;2024-01-16T07:18:51;19.23;;;9.68;;
51358;SDS011;37448;51.588;7.248;2024-01-16T07:20:51;19.88;;;10.30;;
51358;SDS011;37448;51.588;7.248;2024-01-16T07:22:51;19.98;;;10.07;;
51358;SDS011;37448;51.588;7.248;2024-01-16T07:24:52;20.45;;;10.35;;
51358;SDS011;37448;51.588;7.248;2024-01-16T07:26:52;20.95;;;9.70;;
51358;SDS011;37448;51.588;7.248;2024-01-16T07:28:54;20.95;;;9.80;;
51358;SDS011;37448;51.588;7.248;2024-01-16T07:30:54;25.77;;;10.80;;
51358;SDS011;37448;51.588;7.248;2024-01-16T07:32:55;21.60;;;10.77;;
51358;SDS011;37448;51.588;7.248;2024-01-16T07:34:55;23.05;;;11.05;;
51358;SDS011;37448;51.588;7.248;2024-01-16T07:36:55;21.38;;;11.68;;
51358;SDS011;37448;51.588;7.248;2024-01-16T07:38:56;25.67;;;12.68;;
51358;SDS011;37448;51.588;7.248;2024-01-16T07:40:57;22.95;;;10.15;;
51358;SDS011;37448;51.588;7.248;2024-01-16T07:42:58;19.08;;;9.90;;
51358;SDS011;37448;51.588;7.248;2024-01-16T07:44:58;18.20;;;11.13;;
51358;SDS011;37448;51.588;7.248;2024-01-16T07:46:58;21.02;;;10.73;;
51358;SDS011;37448;51.588;7.248;2024-01-16T07:49:00;15.82;;;8.93;;
51358;SDS011;37448;51.588;7.248;2024-01-16T07:51:00;18.58;;;9.48;;
51358;SDS011;37448;51.588;7.248;2024-01-16T07:53:01;25.63;;;10.55;;
51358;SDS011;37448;51.588;7.248;2024-01-16T07:55:01;18.85;;;10.43;;
51358;SDS011;37448;51.588;7.248;2024-01-16T07:57:03;14.95;;;9.43;;
51358;SDS011;37448;51.588;7.248;2024-01-16T07:59:04;21.00;;;9.35;;
51358;SDS011;37448;51.588;7.248;2024-01-16T08:01:04;19.50;;;8.98;;
51358;SDS011;37448;51.588;7.248;2024-01-16T08:03:07;17.45;;;9.80;;
51358;SDS011;37448;51.588;7.248;2024-01-16T08:05:08;14.43;;;9.40;;
51358;SDS011;37448;51.588;7.248;2024-01-16T08:07:09;16.00;;;9.32;;
51358;SDS011;37448;51.588;7.248;2024-01-16T08:09:09;18.08;;;9.15;;
51358;SDS011;37448;51.588;7.248;2024-01-16T08:11:12;13.18;;;8.68;;
51358;SDS011;37448;51.588;7.248;2024-01-16T08:13:12;15.52;;;7.82;;
51358;SDS011;37448;51.588;7.248;2024-01-16T08:15:13;16.02;;;7.22;;
51358;SDS011;37448;51.588;7.248;2024-01-16T08:17:13;11.63;;;8.32;;
51358;SDS011;37448;51.588;7.248;2024-01-16T08:19:14;12.95;;;7.72;;
51358;SDS011;37448;51.588;7.248;2024-01-16T08:21:15;14.50;;;7.30;;
51358;SDS011;37448;51.588;7.248;2024-01-16T08:23:15;11.57;;;6.50;;
51358;SDS011;37448;51.588;7.248;2024-01-16T08:25:16;13.32;;;6.97;;
51358;SDS011;37448;51.588;7.248;2024-01-16T08:27:16;9.82;;;5.70;;
51358;SDS011;37448;51.588;7.248;2024-01-16T08:29:17;10.75;;;5.68;;
51358;SDS011;37448;51.588;7.248;2024-01-16T08:31:17;11.60;;;5.03;;
51358;SDS011;37448;51.588;7.248;2024-01-16T08:33:21;9.85;;;4.97;;
51358;SDS011;37448;51.588;7.248;2024-01-16T08:35:22;10.48;;;5.32;;
51358;SDS011;37448;51.588;7.248;2024-01-16T08:37:22;8.48;;;4.55;;
51358;SDS011;37448;51.588;7.248;2024-01-16T08:39:22;10.20;;;4.93;;
51358;SDS011;37448;51.588;7.248;2024-01-16T08:41:24;9.25;;;4.75;;
51358;SDS011;37448;51.588;7.248;2024-01-16T08:43:24;12.52;;;4.72;;
51358;SDS011;37448;51.588;7.248;2024-01-16T08:45:25;9.20;;;4.22;;
51358;SDS011;37448;51.588;7.248;2024-01-16T08:47:26;6.43;;;3.90;;
51358;SDS011;37448;51.588;7.248;2024-01-16T08:49:26;6.40;;;3.22;;
51358;SDS011;37448;51.588;7.248;2024-01-16T08:51:27;7.60;;;3.83;;
51358;SDS011;37448;51.588;7.248;2024-01-16T08:53:27;10.32;;;4.22;;
51358;SDS011;37448;51.588;7.248;2024-01-16T08:55:28;8.75;;;3.60;;
51358;SDS011;37448;51.588;7.248;2024-01-16T08:57:28;8.52;;;3.92;;
51358;SDS011;37448;51.588;7.248;2024-01-16T08:59:28;10.02;;;3.30;;
51358;SDS011;37448;51.588;7.248;2024-01-16T09:01:29;5.95;;;3.72;;
51358;SDS011;37448;51.588;7.248;2024-01-16T09:03:29;5.57;;;2.97;;
51358;SDS011;37448;51.588;7.248;2024-01-16T09:05:29;9.20;;;3.58;;
51358;SDS011;37448;51.588;7.248;2024-01-16T09:07:30;5.72;;;2.97;;
51358;SDS011;37448;51.588;7.248;2024-01-16T09:09:30;6.63;;;2.63;;
51358;SDS011;37448;51.588;7.248;2024-01-16T09:11:31;6.78;;;2.97;;
51358;SDS011;37448;51.588;7.248;2024-01-16T09:13:34;9.75;;;3.38;;
51358;SDS011;37448;51.588;7.248;2024-01-16T09:15:35;5.15;;;2.45;;
51358;SDS011;37448;51.588;7.248;2024-01-16T09:17:35;6.65;;;3.60;;
51358;SDS011;37448;51.588;7.248;2024-01-16T09:19:36;7.65;;;2.95;;
51358;SDS011;37448;51.588;7.248;2024-01-16T09:21:36;4.18;;;2.05;;
51358;SDS011;37448;51.588;7.248;2024-01-16T09:23:37;7.38;;;2.50;;
51358;SDS011;37448;51.588;7.248;2024-01-16T09:25:37;4.00;;;2.67;;
51358;SDS011;37448;51.588;7.248;2024-01-16T09:27:37;5.72;;;2.28;;
51358;SDS011;37448;51.588;7.248;2024-01-16T09:29:38;3.67;;;2.38;;
51358;SDS011;37448;51.588;7.248;2024-01-16T09:31:38;9.48;;;2.63;;
51358;SDS011;37448;51.588;7.248;2024-01-16T09:33:38;10.02;;;3.75;;
51358;SDS011;37448;51.588;7.248;2024-01-16T09:35:39;5.40;;;2.55;;
51358;SDS011;37448;51.588;7.248;2024-01-16T09:37:39;5.88;;;2.30;;
51358;SDS011;37448;51.588;7.248;2024-01-16T09:39:40;7.43;;;2.97;;
51358;SDS011;37448;51.588;7.248;2024-01-16T09:41:41;5.80;;;2.45;;
51358;SDS011;37448;51.588;7.248;2024-01-16T09:43:42;6.03;;;2.45;;
51358;SDS011;37448;51.588;7.248;2024-01-16T09:45:44;6.13;;;2.47;;
51358;SDS011;37448;51.588;7.248;2024-01-16T09:47:48;6.05;;;2.00;;
51358;SDS011;37448;51.588;7.248;2024-01-16T09:49:50;7.45;;;2.97;;
51358;SDS011;37448;51.588;7.248;2024-01-16T09:51:52;7.65;;;2.97;;
51358;SDS011;37448;51.588;7.248;2024-01-16T09:53:53;4.30;;;1.90;;
51358;SDS011;37448;51.588;7.248;2024-01-16T09:55:54;8.98;;;2.90;;
51358;SDS011;37448;51.588;7.248;2024-01-16T09:58:00;9.93;;;2.63;;
51358;SDS011;37448;51.588;7.248;2024-01-16T10:00:03;7.00;;;2.50;;
51358;SDS011;37448;51.588;7.248;2024-01-16T10:02:10;6.10;;;2.50;;
51358;SDS011;37448;51.588;7.248;2024-01-16T10:04:13;9.25;;;2.42;;
51358;SDS011;37448;51.588;7.248;2024-01-16T10:06:13;12.48;;;3.33;;
51358;SDS011;37448;51.588;7.248;2024-01-16T10:08:17;9.93;;;3.28;;
51358;SDS011;37448;51.588;7.248;2024-01-16T10:10:21;10.25;;;3.08;;
51358;SDS011;37448;51.588;7.248;2024-01-16T10:12:22;7.22;;;3.22;;
51358;SDS011;37448;51.588;7.248;2024-01-16T10:14:22;10.32;;;2.78;;
51358;SDS011;37448;51.588;7.248;2024-01-16T10:16:41;9.77;;;2.10;;
51358;SDS011;37448;51.588;7.248;2024-01-16T10:19:04;4.60;;;2.20;;
51358;SDS011;37448;51.588;7.248;2024-01-16T10:21:05;5.80;;;2.58;;
51358;SDS011;37448;51.588;7.248;2024-01-16T10:23:24;5.10;;;1.80;;
51358;SDS011;37448;51.588;7.248;2024-01-16T10:25:26;6.85;;;2.58;;
51358;SDS011;37448;51.588;7.248;2024-01-16T10:27:26;6.05;;;2.13;;
51358;SDS011;37448;51.588;7.248;2024-01-16T10:29:30;5.78;;;2.95;;
51358;SDS011;37448;51.588;7.248;2024-01-16T10:31:31;8.38;;;2.25;;
51358;SDS011;37448;51.588;7.248;2024-01-16T10:33:32;6.95;;;2.40;;
51358;SDS011;37448;51.588;7.248;2024-01-16T10:35:32;6.30;;;2.15;;
51358;SDS011;37448;51.588;7.248;2024-01-16T10:37:48;7.45;;;2.83;;
51358;SDS011;37448;51.588;7.248;2024-01-16T10:39:53;7.05;;;2.15;;
51358;SDS011;37448;51.588;7.248;2024-01-16T10:41:54;4.75;;;2.40;;
51358;SDS011;37448;51.588;7.248;2024-01-16T10:44:05;5.03;;;2.00;;
51358;SDS011;37448;51.588;7.248;2024-01-16T10:46:10;4.68;;;1.75;;
51358;SDS011;37448;51.588;7.248;2024-01-16T10:48:12;7.43;;;2.47;;
51358;SDS011;37448;51.588;7.248;2024-01-16T10:50:15;5.05;;;2.53;;
51358;SDS011;37448;51.588;7.248;2024-01-16T10:52:15;3.38;;;1.60;;
51358;SDS011;37448;51.588;7.248;2024-01-16T10:54:18;7.75;;;2.55;;
51358;SDS011;37448;51.588;7.248;2024-01-16T10:56:21;5.60;;;2.47;;
51358;SDS011;37448;51.588;7.248;2024-01-16T10:58:22;4.10;;;2.50;;
51358;SDS011;37448;51.588;7.248;2024-01-16T11:00:23;6.03;;;2.15;;
51358;SDS011;37448;51.588;7.248;2024-01-16T11:02:29;6.90;;;2.05;;
51358;SDS011;37448;51.588;7.248;2024-01-16T11:04:38;7.38;;;2.20;;
51358;SDS011;37448;51.588;7.248;2024-01-16T11:06:40;10.15;;;2.75;;
51358;SDS011;37448;51.588;7.248;2024-01-16T11:08:42;5.13;;;2.38;;
51358;SDS011;37448;51.588;7.248;2024-01-16T11:10:46;3.95;;;2.25;;
51358;SDS011;37448;51.588;7.248;2024-01-16T11:12:48;5.03;;;2.30;;
51358;SDS011;37448;51.588;7.248;2024-01-16T11:14:49;6.80;;;2.30;;
51358;SDS011;37448;51.588;7.248;2024-01-16T11:16:52;7.28;;;2.08;;
51358;SDS011;37448;51.588;7.248;2024-01-16T11:18:54;5.93;;;2.65;;
51358;SDS011;37448;51.588;7.248;2024-01-16T11:20:54;10.27;;;2.97;;
51358;SDS011;37448;51.588;7.248;2024-01-16T11:22:56;6.05;;;2.20;;
51358;SDS011;37448;51.588;7.248;2024-01-16T11:25:12;4.82;;;2.08;;
51358;SDS011;37448;51.588;7.248;2024-01-16T11:27:22;4.45;;;2.47;;
51358;SDS011;37448;51.588;7.248;2024-01-16T11:31:27;9.60;;;2.72;;
51358;SDS011;37448;51.588;7.248;2024-01-16T11:35:33;5.55;;;2.10;;
51358;SDS011;37448;51.588;7.248;2024-01-16T11:37:34;7.65;;;2.53;;
51358;SDS011;37448;51.588;7.248;2024-01-16T11:39:37;5.82;;;2.00;;
51358;SDS011;37448;51.588;7.248;2024-01-16T11:43:57;4.72;;;2.22;;
51358;SDS011;37448;51.588;7.248;2024-01-16T11:45:58;3.65;;;1.88;;
51358;SDS011;37448;51.588;7.248;2024-01-16T11:48:12;4.43;;;1.83;;
51358;SDS011;37448;51.588;7.248;2024-01-16T11:50:26;5.53;;;2.47;;
51358;SDS011;37448;51.588;7.248;2024-01-16T11:52:41;9.10;;;2.22;;
51358;SDS011;37448;51.588;7.248;2024-01-16T11:54:44;5.22;;;2.20;;
51358;SDS011;37448;51.588;7.248;2024-01-16T12:01:36;5.22;;;2.13;;
51358;SDS011;37448;51.588;7.248;2024-01-16T12:03:38;5.20;;;1.98;;
51358;SDS011;37448;51.588;7.248;2024-01-16T12:05:38;6.57;;;2.58;;
51358;SDS011;37448;51.588;7.248;2024-01-16T12:07:49;9.10;;;2.42;;
51358;SDS011;37448;51.588;7.248;2024-01-16T12:09:50;3.33;;;1.90;;
51358;SDS011;37448;51.588;7.248;2024-01-16T12:11:58;5.43;;;2.08;;
51358;SDS011;37448;51.588;7.248;2024-01-16T12:14:03;6.43;;;2.28;;
51358;SDS011;37448;51.588;7.248;2024-01-16T12:16:04;8.20;;;2.22;;
51358;SDS011;37448;51.588;7.248;2024-01-16T12:18:05;4.88;;;2.15;;
51358;SDS011;37448;51.588;7.248;2024-01-16T12:20:18;3.38;;;1.70;;